sensor_id;sensor_type;location;lat;lon;timestamp;P1;durP1;ratioP1;P2;durP2;ratioP2
17380;SDS011;8808;52.478;13.378;2023-07-22T00:00:59;7.10;;;4.80;;
17380;SDS011;8808;52.478;13.378;2023-07-22T00:03:27;6.93;;;4.70;;
17380;SDS011;8808;52.478;13.378;2023-07-22T00:06:03;8.10;;;5.30;;
17380;SDS011;8808;52.478;13.378;2023-07-22T00:08:31;8.70;;;5.40;;
17380;SDS011;8808;52.478;13.378;2023-07-22T00:10:58;7.13;;;4.87;;
17380;SDS011;8808;52.478;13.378;2023-07-22T00:13:25;8.17;;;5.10;;
17380;SDS011;8808;52.478;13.378;2023-07-22T00:15:54;8.20;;;5.30;;
17380;SDS011;8808;52.478;13.378;2023-07-22T00:18:21;12.17;;;5.30;;
17380;SDS011;8808;52.478;13.378;2023-07-22T00:20:49;8.13;;;4.70;;
17380;SDS011;8808;52.478;13.378;2023-07-22T00:23:16;8.77;;;5.47;;
17380;SDS011;8808;52.478;13.378;2023-07-22T00:25:45;7.33;;;4.63;;
17380;SDS011;8808;52.478;13.378;2023-07-22T00:28:12;7.10;;;4.87;;
17380;SDS011;8808;52.478;13.378;2023-07-22T00:30:39;11.77;;;5.20;;
17380;SDS011;8808;52.478;13.378;2023-07-22T00:33:08;7.20;;;4.80;;
17380;SDS011;8808;52.478;13.378;2023-07-22T00:35:34;7.53;;;5.00;;
17380;SDS011;8808;52.478;13.378;2023-07-22T00:38:01;7.50;;;5.00;;
17380;SDS011;8808;52.478;13.378;2023-07-22T00:40:29;8.13;;;5.33;;
17380;SDS011;8808;52.478;13.378;2023-07-22T00:42:57;8.57;;;4.93;;
17380;SDS011;8808;52.478;13.378;2023-07-22T00:45:24;6.83;;;5.00;;
17380;SDS011;8808;52.478;13.378;2023-07-22T00:47:51;7.87;;;5.13;;
17380;SDS011;8808;52.478;13.378;2023-07-22T00:50:20;9.33;;;5.10;;
17380;SDS011;8808;52.478;13.378;2023-07-22T00:52:49;7.60;;;5.33;;
17380;SDS011;8808;52.478;13.378;2023-07-22T00:55:16;8.53;;;5.10;;
17380;SDS011;8808;52.478;13.378;2023-07-22T00:57:43;9.63;;;5.50;;
17380;SDS011;8808;52.478;13.378;2023-07-22T01:00:10;8.00;;;5.07;;
17380;SDS011;8808;52.478;13.378;2023-07-22T01:02:42;8.10;;;5.47;;
17380;SDS011;8808;52.478;13.378;2023-07-22T01:05:09;7.77;;;4.70;;
17380;SDS011;8808;52.478;13.378;2023-07-22T01:07:39;9.80;;;5.10;;
17380;SDS011;8808;52.478;13.378;2023-07-22T01:10:06;8.33;;;5.07;;
17380;SDS011;8808;52.478;13.378;2023-07-22T01:12:34;8.27;;;5.37;;
17380;SDS011;8808;52.478;13.378;2023-07-22T01:15:01;8.87;;;5.57;;
17380;SDS011;8808;52.478;13.378;2023-07-22T01:17:32;9.83;;;5.87;;
17380;SDS011;8808;52.478;13.378;2023-07-22T01:20:00;6.73;;;5.10;;
17380;SDS011;8808;52.478;13.378;2023-07-22T01:22:27;14.93;;;6.03;;
17380;SDS011;8808;52.478;13.378;2023-07-22T01:24:57;7.40;;;5.50;;
17380;SDS011;8808;52.478;13.378;2023-07-22T01:27:24;8.23;;;5.93;;
17380;SDS011;8808;52.478;13.378;2023-07-22T01:29:51;10.23;;;5.87;;
17380;SDS011;8808;52.478;13.378;2023-07-22T01:32:18;10.13;;;6.40;;
17380;SDS011;8808;52.478;13.378;2023-07-22T01:34:46;11.23;;;6.27;;
17380;SDS011;8808;52.478;13.378;2023-07-22T01:37:13;8.70;;;5.57;;
17380;SDS011;8808;52.478;13.378;2023-07-22T01:39:40;12.17;;;6.53;;
17380;SDS011;8808;52.478;13.378;2023-07-22T01:42:08;9.33;;;6.50;;
17380;SDS011;8808;52.478;13.378;2023-07-22T01:44:35;10.57;;;6.20;;
17380;SDS011;8808;52.478;13.378;2023-07-22T01:47:02;7.43;;;5.60;;
17380;SDS011;8808;52.478;13.378;2023-07-22T01:49:29;9.17;;;6.23;;
17380;SDS011;8808;52.478;13.378;2023-07-22T01:51:56;15.17;;;7.00;;
17380;SDS011;8808;52.478;13.378;2023-07-22T01:54:23;8.00;;;5.83;;
17380;SDS011;8808;52.478;13.378;2023-07-22T01:56:50;10.37;;;6.43;;
17380;SDS011;8808;52.478;13.378;2023-07-22T01:59:18;9.83;;;6.10;;
17380;SDS011;8808;52.478;13.378;2023-07-22T02:01:45;9.80;;;6.87;;
17380;SDS011;8808;52.478;13.378;2023-07-22T02:04:12;10.50;;;6.87;;
17380;SDS011;8808;52.478;13.378;2023-07-22T02:06:39;10.97;;;6.60;;
17380;SDS011;8808;52.478;13.378;2023-07-22T02:09:06;9.80;;;6.57;;
17380;SDS011;8808;52.478;13.378;2023-07-22T02:11:34;16.40;;;6.30;;
17380;SDS011;8808;52.478;13.378;2023-07-22T02:14:01;11.53;;;6.53;;
17380;SDS011;8808;52.478;13.378;2023-07-22T02:16:33;9.53;;;5.87;;
17380;SDS011;8808;52.478;13.378;2023-07-22T02:19:01;9.33;;;6.20;;
17380;SDS011;8808;52.478;13.378;2023-07-22T02:21:28;8.77;;;5.53;;
17380;SDS011;8808;52.478;13.378;2023-07-22T02:23:55;8.63;;;5.27;;
17380;SDS011;8808;52.478;13.378;2023-07-22T02:26:22;8.00;;;5.30;;
17380;SDS011;8808;52.478;13.378;2023-07-22T02:28:49;9.73;;;5.60;;
17380;SDS011;8808;52.478;13.378;2023-07-22T02:31:16;12.07;;;5.37;;
17380;SDS011;8808;52.478;13.378;2023-07-22T02:33:44;14.47;;;5.57;;
17380;SDS011;8808;52.478;13.378;2023-07-22T02:36:12;9.63;;;5.50;;
17380;SDS011;8808;52.478;13.378;2023-07-22T02:38:39;12.33;;;5.70;;
17380;SDS011;8808;52.478;13.378;2023-07-22T02:41:07;10.47;;;5.23;;
17380;SDS011;8808;52.478;13.378;2023-07-22T02:43:34;9.43;;;5.83;;
17380;SDS011;8808;52.478;13.378;2023-07-22T02:46:01;7.97;;;5.47;;
17380;SDS011;8808;52.478;13.378;2023-07-22T02:48:29;11.77;;;5.80;;
17380;SDS011;8808;52.478;13.378;2023-07-22T02:51:02;11.60;;;6.07;;
17380;SDS011;8808;52.478;13.378;2023-07-22T02:53:30;10.60;;;6.00;;
17380;SDS011;8808;52.478;13.378;2023-07-22T02:55:58;10.17;;;5.83;;
17380;SDS011;8808;52.478;13.378;2023-07-22T02:58:25;7.17;;;5.27;;
17380;SDS011;8808;52.478;13.378;2023-07-22T03:00:52;7.60;;;5.53;;
17380;SDS011;8808;52.478;13.378;2023-07-22T03:03:19;10.07;;;5.67;;
17380;SDS011;8808;52.478;13.378;2023-07-22T03:05:47;8.87;;;5.80;;
17380;SDS011;8808;52.478;13.378;2023-07-22T03:08:16;9.03;;;6.33;;
17380;SDS011;8808;52.478;13.378;2023-07-22T03:10:43;9.83;;;6.20;;
17380;SDS011;8808;52.478;13.378;2023-07-22T03:13:13;7.97;;;5.67;;
17380;SDS011;8808;52.478;13.378;2023-07-22T03:15:40;10.20;;;5.67;;
17380;SDS011;8808;52.478;13.378;2023-07-22T03:18:07;12.33;;;5.83;;
17380;SDS011;8808;52.478;13.378;2023-07-22T03:20:35;9.40;;;6.00;;
17380;SDS011;8808;52.478;13.378;2023-07-22T03:23:02;8.97;;;5.87;;
17380;SDS011;8808;52.478;13.378;2023-07-22T03:25:31;9.53;;;5.80;;
17380;SDS011;8808;52.478;13.378;2023-07-22T03:27:58;9.53;;;6.30;;
17380;SDS011;8808;52.478;13.378;2023-07-22T03:30:28;11.53;;;5.90;;
17380;SDS011;8808;52.478;13.378;2023-07-22T03:32:55;11.30;;;5.53;;
17380;SDS011;8808;52.478;13.378;2023-07-22T03:35:22;9.33;;;5.97;;
17380;SDS011;8808;52.478;13.378;2023-07-22T03:37:49;9.77;;;5.50;;
17380;SDS011;8808;52.478;13.378;2023-07-22T03:40:16;11.90;;;5.73;;
17380;SDS011;8808;52.478;13.378;2023-07-22T03:42:46;9.80;;;5.67;;
17380;SDS011;8808;52.478;13.378;2023-07-22T03:45:13;8.53;;;5.80;;
17380;SDS011;8808;52.478;13.378;2023-07-22T03:47:40;9.03;;;5.20;;
17380;SDS011;8808;52.478;13.378;2023-07-22T03:50:07;8.73;;;5.20;;
17380;SDS011;8808;52.478;13.378;2023-07-22T03:52:35;9.53;;;5.90;;
17380;SDS011;8808;52.478;13.378;2023-07-22T03:55:02;8.10;;;5.03;;
17380;SDS011;8808;52.478;13.378;2023-07-22T03:57:30;9.67;;;5.30;;
17380;SDS011;8808;52.478;13.378;2023-07-22T03:59:59;8.83;;;5.13;;
17380;SDS011;8808;52.478;13.378;2023-07-22T04:02:26;10.93;;;5.57;;
17380;SDS011;8808;52.478;13.378;2023-07-22T04:04:53;8.90;;;5.00;;
17380;SDS011;8808;52.478;13.378;2023-07-22T04:07:21;6.87;;;4.70;;
17380;SDS011;8808;52.478;13.378;2023-07-22T04:09:48;9.77;;;4.53;;
17380;SDS011;8808;52.478;13.378;2023-07-22T04:12:16;7.33;;;4.70;;
17380;SDS011;8808;52.478;13.378;2023-07-22T04:14:43;7.13;;;4.50;;
17380;SDS011;8808;52.478;13.378;2023-07-22T04:17:11;9.23;;;4.47;;
17380;SDS011;8808;52.478;13.378;2023-07-22T04:19:40;6.23;;;4.30;;
17380;SDS011;8808;52.478;13.378;2023-07-22T04:22:07;8.73;;;4.60;;
17380;SDS011;8808;52.478;13.378;2023-07-22T04:24:34;6.53;;;4.13;;
17380;SDS011;8808;52.478;13.378;2023-07-22T04:27:01;7.20;;;4.73;;
17380;SDS011;8808;52.478;13.378;2023-07-22T04:29:28;7.17;;;4.07;;
17380;SDS011;8808;52.478;13.378;2023-07-22T04:31:56;7.67;;;3.93;;
17380;SDS011;8808;52.478;13.378;2023-07-22T04:34:27;8.30;;;4.20;;
17380;SDS011;8808;52.478;13.378;2023-07-22T04:36:55;5.17;;;3.70;;
17380;SDS011;8808;52.478;13.378;2023-07-22T04:39:22;6.23;;;4.17;;
17380;SDS011;8808;52.478;13.378;2023-07-22T04:41:49;7.57;;;4.33;;
17380;SDS011;8808;52.478;13.378;2023-07-22T04:44:16;5.50;;;3.73;;
17380;SDS011;8808;52.478;13.378;2023-07-22T04:46:44;7.27;;;4.40;;
17380;SDS011;8808;52.478;13.378;2023-07-22T04:49:11;11.40;;;4.50;;
17380;SDS011;8808;52.478;13.378;2023-07-22T04:51:40;6.63;;;4.20;;
17380;SDS011;8808;52.478;13.378;2023-07-22T04:54:07;6.40;;;4.23;;
17380;SDS011;8808;52.478;13.378;2023-07-22T04:56:34;7.40;;;4.23;;
17380;SDS011;8808;52.478;13.378;2023-07-22T04:59:01;9.03;;;4.90;;
17380;SDS011;8808;52.478;13.378;2023-07-22T05:01:29;8.23;;;4.47;;
17380;SDS011;8808;52.478;13.378;2023-07-22T05:03:56;11.20;;;4.57;;
17380;SDS011;8808;52.478;13.378;2023-07-22T05:06:23;9.70;;;4.93;;
17380;SDS011;8808;52.478;13.378;2023-07-22T05:08:51;8.40;;;5.03;;
17380;SDS011;8808;52.478;13.378;2023-07-22T05:11:18;8.97;;;5.23;;
17380;SDS011;8808;52.478;13.378;2023-07-22T05:13:45;8.33;;;5.00;;
17380;SDS011;8808;52.478;13.378;2023-07-22T05:16:12;9.73;;;5.23;;
17380;SDS011;8808;52.478;13.378;2023-07-22T05:18:39;12.57;;;5.30;;
17380;SDS011;8808;52.478;13.378;2023-07-22T05:21:06;9.47;;;5.17;;
17380;SDS011;8808;52.478;13.378;2023-07-22T05:23:33;11.40;;;5.20;;
17380;SDS011;8808;52.478;13.378;2023-07-22T05:26:01;12.43;;;5.70;;
17380;SDS011;8808;52.478;13.378;2023-07-22T05:28:28;10.97;;;5.47;;
17380;SDS011;8808;52.478;13.378;2023-07-22T05:30:56;7.80;;;5.17;;
17380;SDS011;8808;52.478;13.378;2023-07-22T05:33:23;8.83;;;5.30;;
17380;SDS011;8808;52.478;13.378;2023-07-22T05:35:49;10.57;;;5.40;;
17380;SDS011;8808;52.478;13.378;2023-07-22T05:38:17;10.93;;;5.50;;
17380;SDS011;8808;52.478;13.378;2023-07-22T05:40:43;8.80;;;5.70;;
17380;SDS011;8808;52.478;13.378;2023-07-22T05:43:12;10.17;;;6.00;;
17380;SDS011;8808;52.478;13.378;2023-07-22T05:45:39;10.80;;;5.67;;
17380;SDS011;8808;52.478;13.378;2023-07-22T05:48:06;15.70;;;6.53;;
17380;SDS011;8808;52.478;13.378;2023-07-22T05:50:32;13.97;;;6.63;;
17380;SDS011;8808;52.478;13.378;2023-07-22T05:52:59;13.80;;;6.63;;
17380;SDS011;8808;52.478;13.378;2023-07-22T05:55:26;15.93;;;6.67;;
17380;SDS011;8808;52.478;13.378;2023-07-22T05:57:53;11.17;;;6.20;;
17380;SDS011;8808;52.478;13.378;2023-07-22T06:00:22;10.23;;;5.80;;
17380;SDS011;8808;52.478;13.378;2023-07-22T06:02:49;15.27;;;6.03;;
17380;SDS011;8808;52.478;13.378;2023-07-22T06:05:16;13.63;;;6.43;;
17380;SDS011;8808;52.478;13.378;2023-07-22T06:07:43;13.67;;;5.80;;
17380;SDS011;8808;52.478;13.378;2023-07-22T06:10:10;12.97;;;6.07;;
17380;SDS011;8808;52.478;13.378;2023-07-22T06:12:37;11.93;;;5.93;;
17380;SDS011;8808;52.478;13.378;2023-07-22T06:15:06;10.47;;;5.90;;
17380;SDS011;8808;52.478;13.378;2023-07-22T06:17:35;14.83;;;5.60;;
17380;SDS011;8808;52.478;13.378;2023-07-22T06:20:02;10.20;;;5.10;;
17380;SDS011;8808;52.478;13.378;2023-07-22T06:22:29;11.20;;;5.37;;
17380;SDS011;8808;52.478;13.378;2023-07-22T06:24:56;11.10;;;5.43;;
17380;SDS011;8808;52.478;13.378;2023-07-22T06:27:23;15.33;;;5.33;;
17380;SDS011;8808;52.478;13.378;2023-07-22T06:29:50;11.37;;;5.00;;
17380;SDS011;8808;52.478;13.378;2023-07-22T06:32:17;9.77;;;5.10;;
17380;SDS011;8808;52.478;13.378;2023-07-22T06:34:45;11.03;;;4.60;;
17380;SDS011;8808;52.478;13.378;2023-07-22T06:37:12;9.10;;;4.33;;
17380;SDS011;8808;52.478;13.378;2023-07-22T06:39:39;13.73;;;4.20;;
17380;SDS011;8808;52.478;13.378;2023-07-22T06:42:06;7.60;;;4.33;;
17380;SDS011;8808;52.478;13.378;2023-07-22T06:44:33;9.90;;;4.83;;
17380;SDS011;8808;52.478;13.378;2023-07-22T06:47:02;12.93;;;4.63;;
17380;SDS011;8808;52.478;13.378;2023-07-22T06:49:29;7.27;;;4.07;;
17380;SDS011;8808;52.478;13.378;2023-07-22T06:51:57;10.13;;;4.13;;
17380;SDS011;8808;52.478;13.378;2023-07-22T06:54:24;8.27;;;3.83;;
17380;SDS011;8808;52.478;13.378;2023-07-22T06:56:51;7.80;;;4.13;;
17380;SDS011;8808;52.478;13.378;2023-07-22T06:59:18;10.60;;;3.90;;
17380;SDS011;8808;52.478;13.378;2023-07-22T07:01:45;7.33;;;3.67;;
17380;SDS011;8808;52.478;13.378;2023-07-22T07:04:12;7.00;;;3.37;;
17380;SDS011;8808;52.478;13.378;2023-07-22T07:06:39;7.77;;;3.10;;
17380;SDS011;8808;52.478;13.378;2023-07-22T07:09:07;6.30;;;2.93;;
17380;SDS011;8808;52.478;13.378;2023-07-22T07:11:34;6.37;;;3.53;;
17380;SDS011;8808;52.478;13.378;2023-07-22T07:14:01;9.90;;;3.00;;
17380;SDS011;8808;52.478;13.378;2023-07-22T07:16:30;5.63;;;3.27;;
17380;SDS011;8808;52.478;13.378;2023-07-22T07:18:59;5.90;;;3.27;;
17380;SDS011;8808;52.478;13.378;2023-07-22T07:21:26;6.53;;;3.13;;
17380;SDS011;8808;52.478;13.378;2023-07-22T07:23:53;5.93;;;3.00;;
17380;SDS011;8808;52.478;13.378;2023-07-22T07:26:22;7.63;;;3.20;;
17380;SDS011;8808;52.478;13.378;2023-07-22T07:28:50;10.30;;;2.90;;
17380;SDS011;8808;52.478;13.378;2023-07-22T07:31:17;6.53;;;3.20;;
17380;SDS011;8808;52.478;13.378;2023-07-22T07:33:44;10.00;;;3.50;;
17380;SDS011;8808;52.478;13.378;2023-07-22T07:36:11;8.77;;;3.63;;
17380;SDS011;8808;52.478;13.378;2023-07-22T07:38:38;7.03;;;2.97;;
17380;SDS011;8808;52.478;13.378;2023-07-22T07:41:06;12.17;;;3.60;;
17380;SDS011;8808;52.478;13.378;2023-07-22T07:43:37;7.20;;;3.07;;
17380;SDS011;8808;52.478;13.378;2023-07-22T07:46:14;10.90;;;3.47;;
17380;SDS011;8808;52.478;13.378;2023-07-22T07:48:44;7.97;;;2.90;;
17380;SDS011;8808;52.478;13.378;2023-07-22T07:51:12;6.53;;;2.87;;
17380;SDS011;8808;52.478;13.378;2023-07-22T07:53:40;8.93;;;3.07;;
17380;SDS011;8808;52.478;13.378;2023-07-22T07:56:08;6.30;;;2.87;;
17380;SDS011;8808;52.478;13.378;2023-07-22T07:58:36;4.63;;;3.03;;
17380;SDS011;8808;52.478;13.378;2023-07-22T08:01:04;5.90;;;3.10;;
17380;SDS011;8808;52.478;13.378;2023-07-22T08:03:32;7.70;;;3.20;;
17380;SDS011;8808;52.478;13.378;2023-07-22T08:06:00;8.37;;;3.00;;
17380;SDS011;8808;52.478;13.378;2023-07-22T08:08:27;6.47;;;2.97;;
17380;SDS011;8808;52.478;13.378;2023-07-22T08:10:58;6.97;;;3.03;;
17380;SDS011;8808;52.478;13.378;2023-07-22T08:13:26;7.23;;;3.10;;
17380;SDS011;8808;52.478;13.378;2023-07-22T08:15:56;9.47;;;3.03;;
17380;SDS011;8808;52.478;13.378;2023-07-22T08:18:23;6.83;;;2.83;;
17380;SDS011;8808;52.478;13.378;2023-07-22T08:20:51;6.97;;;2.90;;
17380;SDS011;8808;52.478;13.378;2023-07-22T08:23:18;5.60;;;2.87;;
17380;SDS011;8808;52.478;13.378;2023-07-22T08:25:45;7.70;;;2.90;;
17380;SDS011;8808;52.478;13.378;2023-07-22T08:28:12;5.97;;;3.00;;
17380;SDS011;8808;52.478;13.378;2023-07-22T08:30:39;5.77;;;2.83;;
17380;SDS011;8808;52.478;13.378;2023-07-22T08:33:08;7.13;;;2.90;;
17380;SDS011;8808;52.478;13.378;2023-07-22T08:35:36;5.77;;;3.10;;
17380;SDS011;8808;52.478;13.378;2023-07-22T08:38:04;7.77;;;3.20;;
17380;SDS011;8808;52.478;13.378;2023-07-22T08:40:34;7.83;;;3.00;;
17380;SDS011;8808;52.478;13.378;2023-07-22T08:43:02;6.97;;;3.40;;
17380;SDS011;8808;52.478;13.378;2023-07-22T08:45:31;7.17;;;3.27;;
17380;SDS011;8808;52.478;13.378;2023-07-22T08:48:02;6.70;;;3.00;;
17380;SDS011;8808;52.478;13.378;2023-07-22T08:50:34;5.97;;;2.70;;
17380;SDS011;8808;52.478;13.378;2023-07-22T08:53:06;7.73;;;3.20;;
17380;SDS011;8808;52.478;13.378;2023-07-22T08:55:34;6.33;;;2.93;;
17380;SDS011;8808;52.478;13.378;2023-07-22T08:58:01;7.63;;;3.13;;
17380;SDS011;8808;52.478;13.378;2023-07-22T09:00:29;9.17;;;3.20;;
17380;SDS011;8808;52.478;13.378;2023-07-22T09:02:57;7.80;;;3.17;;
17380;SDS011;8808;52.478;13.378;2023-07-22T09:05:25;5.60;;;2.93;;
17380;SDS011;8808;52.478;13.378;2023-07-22T09:07:55;6.70;;;3.00;;
17380;SDS011;8808;52.478;13.378;2023-07-22T09:10:22;7.07;;;3.17;;
17380;SDS011;8808;52.478;13.378;2023-07-22T09:12:53;6.30;;;3.03;;
17380;SDS011;8808;52.478;13.378;2023-07-22T09:15:20;7.83;;;3.40;;
17380;SDS011;8808;52.478;13.378;2023-07-22T09:17:48;5.23;;;2.63;;
17380;SDS011;8808;52.478;13.378;2023-07-22T09:20:16;6.10;;;3.23;;
17380;SDS011;8808;52.478;13.378;2023-07-22T09:22:43;4.37;;;2.80;;
17380;SDS011;8808;52.478;13.378;2023-07-22T09:25:16;6.77;;;2.83;;
17380;SDS011;8808;52.478;13.378;2023-07-22T09:27:44;5.97;;;2.77;;
17380;SDS011;8808;52.478;13.378;2023-07-22T09:30:20;6.70;;;2.80;;
17380;SDS011;8808;52.478;13.378;2023-07-22T09:32:47;8.60;;;3.20;;
17380;SDS011;8808;52.478;13.378;2023-07-22T09:35:15;7.47;;;2.67;;
17380;SDS011;8808;52.478;13.378;2023-07-22T09:37:43;6.57;;;2.60;;
17380;SDS011;8808;52.478;13.378;2023-07-22T09:42:54;5.60;;;2.60;;
17380;SDS011;8808;52.478;13.378;2023-07-22T09:45:23;4.77;;;2.43;;
17380;SDS011;8808;52.478;13.378;2023-07-22T09:47:51;4.70;;;2.60;;
17380;SDS011;8808;52.478;13.378;2023-07-22T09:50:21;4.07;;;2.33;;
17380;SDS011;8808;52.478;13.378;2023-07-22T09:52:49;4.00;;;2.37;;
17380;SDS011;8808;52.478;13.378;2023-07-22T09:55:18;5.53;;;2.20;;
17380;SDS011;8808;52.478;13.378;2023-07-22T09:57:49;5.70;;;2.30;;
17380;SDS011;8808;52.478;13.378;2023-07-22T10:00:17;6.60;;;2.70;;
17380;SDS011;8808;52.478;13.378;2023-07-22T10:02:46;4.07;;;2.30;;
17380;SDS011;8808;52.478;13.378;2023-07-22T10:05:15;4.07;;;2.50;;
17380;SDS011;8808;52.478;13.378;2023-07-22T10:07:44;4.60;;;2.27;;
17380;SDS011;8808;52.478;13.378;2023-07-22T10:10:13;4.33;;;2.33;;
17380;SDS011;8808;52.478;13.378;2023-07-22T10:12:42;5.30;;;2.67;;
17380;SDS011;8808;52.478;13.378;2023-07-22T10:15:11;5.90;;;2.57;;
17380;SDS011;8808;52.478;13.378;2023-07-22T10:17:39;4.22;;;2.42;;
17380;SDS011;8808;52.478;13.378;2023-07-22T10:20:07;4.47;;;2.00;;
17380;SDS011;8808;52.478;13.378;2023-07-22T10:22:40;5.07;;;2.60;;
17380;SDS011;8808;52.478;13.378;2023-07-22T10:25:08;7.35;;;2.60;;
17380;SDS011;8808;52.478;13.378;2023-07-22T10:27:37;5.82;;;2.58;;
17380;SDS011;8808;52.478;13.378;2023-07-22T10:30:07;3.35;;;2.15;;
17380;SDS011;8808;52.478;13.378;2023-07-22T10:32:36;4.78;;;2.40;;
17380;SDS011;8808;52.478;13.378;2023-07-22T10:35:05;5.63;;;2.80;;
17380;SDS011;8808;52.478;13.378;2023-07-22T10:37:36;6.43;;;3.00;;
17380;SDS011;8808;52.478;13.378;2023-07-22T10:40:16;4.13;;;2.38;;
17380;SDS011;8808;52.478;13.378;2023-07-22T10:42:52;6.93;;;2.90;;
17380;SDS011;8808;52.478;13.378;2023-07-22T10:45:24;7.18;;;2.53;;
17380;SDS011;8808;52.478;13.378;2023-07-22T10:48:01;4.55;;;2.55;;
17380;SDS011;8808;52.478;13.378;2023-07-22T10:50:39;6.97;;;2.70;;
17380;SDS011;8808;52.478;13.378;2023-07-22T10:53:09;4.63;;;2.55;;
17380;SDS011;8808;52.478;13.378;2023-07-22T10:58:33;5.45;;;2.80;;
17380;SDS011;8808;52.478;13.378;2023-07-22T11:01:21;5.15;;;2.75;;
17380;SDS011;8808;52.478;13.378;2023-07-22T11:04:04;5.45;;;2.47;;
17380;SDS011;8808;52.478;13.378;2023-07-22T11:06:31;8.48;;;3.05;;
17380;SDS011;8808;52.478;13.378;2023-07-22T11:08:59;5.97;;;2.80;;
17380;SDS011;8808;52.478;13.378;2023-07-22T11:11:34;7.35;;;2.85;;
17380;SDS011;8808;52.478;13.378;2023-07-22T11:14:15;6.15;;;2.80;;
17380;SDS011;8808;52.478;13.378;2023-07-22T11:16:44;4.45;;;2.47;;
17380;SDS011;8808;52.478;13.378;2023-07-22T11:19:13;6.18;;;2.72;;
17380;SDS011;8808;52.478;13.378;2023-07-22T11:21:41;6.25;;;3.00;;
17380;SDS011;8808;52.478;13.378;2023-07-22T11:24:08;5.18;;;2.70;;
17380;SDS011;8808;52.478;13.378;2023-07-22T11:26:35;6.32;;;2.90;;
17380;SDS011;8808;52.478;13.378;2023-07-22T11:29:04;6.95;;;2.75;;
17380;SDS011;8808;52.478;13.378;2023-07-22T11:31:31;6.63;;;2.90;;
17380;SDS011;8808;52.478;13.378;2023-07-22T11:33:58;4.60;;;2.75;;
17380;SDS011;8808;52.478;13.378;2023-07-22T11:36:27;5.20;;;2.75;;
17380;SDS011;8808;52.478;13.378;2023-07-22T11:38:54;5.40;;;2.95;;
17380;SDS011;8808;52.478;13.378;2023-07-22T11:41:28;5.97;;;2.95;;
17380;SDS011;8808;52.478;13.378;2023-07-22T11:43:57;6.32;;;2.78;;
17380;SDS011;8808;52.478;13.378;2023-07-22T11:46:24;4.95;;;2.67;;
17380;SDS011;8808;52.478;13.378;2023-07-22T11:48:51;4.85;;;2.65;;
17380;SDS011;8808;52.478;13.378;2023-07-22T11:51:19;4.53;;;2.90;;
17380;SDS011;8808;52.478;13.378;2023-07-22T11:53:49;5.07;;;3.00;;
17380;SDS011;8808;52.478;13.378;2023-07-22T11:56:20;5.13;;;2.90;;
17380;SDS011;8808;52.478;13.378;2023-07-22T11:58:48;5.60;;;2.97;;
17380;SDS011;8808;52.478;13.378;2023-07-22T12:01:16;6.72;;;3.08;;
17380;SDS011;8808;52.478;13.378;2023-07-22T12:03:43;6.07;;;2.67;;
17380;SDS011;8808;52.478;13.378;2023-07-22T12:06:11;7.70;;;2.90;;
17380;SDS011;8808;52.478;13.378;2023-07-22T12:08:42;4.38;;;2.90;;
17380;SDS011;8808;52.478;13.378;2023-07-22T12:11:17;12.52;;;3.00;;
17380;SDS011;8808;52.478;13.378;2023-07-22T12:13:44;7.88;;;3.05;;
17380;SDS011;8808;52.478;13.378;2023-07-22T12:16:20;7.18;;;2.95;;
17380;SDS011;8808;52.478;13.378;2023-07-22T12:18:48;5.15;;;2.72;;
17380;SDS011;8808;52.478;13.378;2023-07-22T12:21:16;7.07;;;2.72;;
17380;SDS011;8808;52.478;13.378;2023-07-22T12:23:43;4.93;;;2.78;;
17380;SDS011;8808;52.478;13.378;2023-07-22T12:26:10;6.05;;;3.00;;
17380;SDS011;8808;52.478;13.378;2023-07-22T12:28:38;5.65;;;2.97;;
17380;SDS011;8808;52.478;13.378;2023-07-22T12:31:05;4.03;;;2.67;;
17380;SDS011;8808;52.478;13.378;2023-07-22T12:33:34;5.15;;;3.05;;
17380;SDS011;8808;52.478;13.378;2023-07-22T12:36:01;5.55;;;2.95;;
17380;SDS011;8808;52.478;13.378;2023-07-22T12:38:29;6.22;;;2.90;;
17380;SDS011;8808;52.478;13.378;2023-07-22T12:40:56;7.78;;;3.50;;
17380;SDS011;8808;52.478;13.378;2023-07-22T12:43:24;5.78;;;3.05;;
17380;SDS011;8808;52.478;13.378;2023-07-22T12:45:52;5.53;;;3.30;;
17380;SDS011;8808;52.478;13.378;2023-07-22T12:48:20;8.27;;;3.38;;
17380;SDS011;8808;52.478;13.378;2023-07-22T12:50:47;6.20;;;3.03;;
17380;SDS011;8808;52.478;13.378;2023-07-22T12:53:14;6.03;;;2.63;;
17380;SDS011;8808;52.478;13.378;2023-07-22T12:55:40;6.32;;;3.17;;
17380;SDS011;8808;52.478;13.378;2023-07-22T12:58:07;11.50;;;4.30;;
17380;SDS011;8808;52.478;13.378;2023-07-22T13:00:35;5.70;;;3.10;;
17380;SDS011;8808;52.478;13.378;2023-07-22T13:03:03;12.63;;;6.80;;
17380;SDS011;8808;52.478;13.378;2023-07-22T13:05:30;6.60;;;3.28;;
17380;SDS011;8808;52.478;13.378;2023-07-22T13:07:57;6.90;;;3.42;;
17380;SDS011;8808;52.478;13.378;2023-07-22T13:10:26;8.48;;;3.03;;
17380;SDS011;8808;52.478;13.378;2023-07-22T13:12:53;5.28;;;3.25;;
17380;SDS011;8808;52.478;13.378;2023-07-22T13:15:21;5.38;;;2.92;;
17380;SDS011;8808;52.478;13.378;2023-07-22T13:17:48;5.68;;;2.97;;
17380;SDS011;8808;52.478;13.378;2023-07-22T13:20:16;7.15;;;3.30;;
17380;SDS011;8808;52.478;13.378;2023-07-22T13:22:43;5.43;;;2.67;;
17380;SDS011;8808;52.478;13.378;2023-07-22T13:25:10;6.00;;;3.13;;
17380;SDS011;8808;52.478;13.378;2023-07-22T13:27:37;7.88;;;3.33;;
17380;SDS011;8808;52.478;13.378;2023-07-22T13:30:06;4.18;;;2.80;;
17380;SDS011;8808;52.478;13.378;2023-07-22T13:32:34;5.13;;;3.13;;
17380;SDS011;8808;52.478;13.378;2023-07-22T13:35:01;6.90;;;3.40;;
17380;SDS011;8808;52.478;13.378;2023-07-22T13:37:30;5.70;;;2.95;;
17380;SDS011;8808;52.478;13.378;2023-07-22T13:39:57;5.72;;;3.33;;
17380;SDS011;8808;52.478;13.378;2023-07-22T13:42:24;6.82;;;3.13;;
17380;SDS011;8808;52.478;13.378;2023-07-22T13:44:51;6.18;;;3.28;;
17380;SDS011;8808;52.478;13.378;2023-07-22T13:47:18;4.40;;;2.67;;
17380;SDS011;8808;52.478;13.378;2023-07-22T13:49:45;4.97;;;3.05;;
17380;SDS011;8808;52.478;13.378;2023-07-22T13:52:12;5.22;;;3.20;;
17380;SDS011;8808;52.478;13.378;2023-07-22T13:54:40;5.15;;;3.22;;
17380;SDS011;8808;52.478;13.378;2023-07-22T13:57:07;10.23;;;3.40;;
17380;SDS011;8808;52.478;13.378;2023-07-22T13:59:34;6.13;;;3.60;;
17380;SDS011;8808;52.478;13.378;2023-07-22T14:02:01;5.30;;;3.30;;
17380;SDS011;8808;52.478;13.378;2023-07-22T14:04:28;4.90;;;3.03;;
17380;SDS011;8808;52.478;13.378;2023-07-22T14:06:55;9.38;;;3.20;;
17380;SDS011;8808;52.478;13.378;2023-07-22T14:09:22;5.25;;;2.90;;
17380;SDS011;8808;52.478;13.378;2023-07-22T14:11:51;4.43;;;2.83;;
17380;SDS011;8808;52.478;13.378;2023-07-22T14:14:18;5.20;;;3.15;;
17380;SDS011;8808;52.478;13.378;2023-07-22T14:16:53;11.45;;;3.35;;
17380;SDS011;8808;52.478;13.378;2023-07-22T14:19:20;5.90;;;2.85;;
17380;SDS011;8808;52.478;13.378;2023-07-22T14:21:47;5.53;;;3.10;;
17380;SDS011;8808;52.478;13.378;2023-07-22T14:24:15;3.90;;;2.72;;
17380;SDS011;8808;52.478;13.378;2023-07-22T14:26:41;5.65;;;3.15;;
17380;SDS011;8808;52.478;13.378;2023-07-22T14:29:10;6.10;;;2.92;;
17380;SDS011;8808;52.478;13.378;2023-07-22T14:31:37;4.68;;;2.75;;
17380;SDS011;8808;52.478;13.378;2023-07-22T14:34:04;5.07;;;2.75;;
17380;SDS011;8808;52.478;13.378;2023-07-22T14:36:30;5.93;;;3.00;;
17380;SDS011;8808;52.478;13.378;2023-07-22T14:38:58;4.32;;;2.85;;
17380;SDS011;8808;52.478;13.378;2023-07-22T14:41:25;6.25;;;2.70;;
17380;SDS011;8808;52.478;13.378;2023-07-22T14:43:52;4.30;;;2.60;;
17380;SDS011;8808;52.478;13.378;2023-07-22T14:46:20;4.88;;;3.10;;
17380;SDS011;8808;52.478;13.378;2023-07-22T14:48:47;5.22;;;2.80;;
17380;SDS011;8808;52.478;13.378;2023-07-22T14:51:14;4.53;;;2.80;;
17380;SDS011;8808;52.478;13.378;2023-07-22T14:53:41;4.90;;;3.03;;
17380;SDS011;8808;52.478;13.378;2023-07-22T14:56:08;5.53;;;3.40;;